^^
Saratoga-Weather Station Historical Data
Daily Summary for August 6, 2020 Units:  English    Metric   Both
Daily Weekly Monthly Yearly Custom
  High: Low: Average:
Temperature: 44.6 °F 31.1 °F 35.6 °F
Dew Point: 36.7 °F 30 °F 32.5 °F
Humidity: 97% 64% 89%
Wind Speed: 4mph 0mph 0.4mph
Wind Gust: 7mph - -
Wind- - ESE
Pressure: 30.6 in 30.4 in -
Precipitation: 0 in    
Historical Graphs
 
 
Tabular Data for August 6, 2020
Time Temperature Dew Point Pressure Wind Wind Speed Wind Gust Humidity Rainfall Rate (Hourly) solar
00:00 32.9 °F 31.3 °F 30.6 in Calm     94% 0 in 0 W/m2
00:05 32.9 °F 31.3 °F 30.6 in Calm     94% 0 in 0 W/m2
00:10 32.9 °F 31.3 °F 30.6 in Calm     94% 0 in 0 W/m2
00:15 32.7 °F 31.1 °F 30.6 in Calm     94% 0 in 0 W/m2
00:20 32.7 °F 31.1 °F 30.6 in Calm     94% 0 in 0 W/m2
00:25 32.7 °F 31.1 °F 30.6 in Calm     94% 0 in 0 W/m2
00:30 32.7 °F 31.1 °F 30.6 in Calm   1 mph 94% 0 in 0 W/m2
00:35 32.7 °F 31.1 °F 30.6 in Calm     94% 0 in 0 W/m2
00:40 32.5 °F 31.3 °F 30.6 in WSW 0.9 mph 1 mph 95% 0 in 0 W/m2
00:45 32.5 °F 31.3 °F 30.6 in WSW 0.9 mph 1 mph 95% 0 in 0 W/m2
00:50 32.5 °F 31.3 °F 30.6 in WSW 0.9 mph 1 mph 95% 0 in 0 W/m2
00:55 32.5 °F 31.3 °F 30.6 in Calm   1 mph 95% 0 in 0 W/m2
01:00 32.7 °F 31.5 °F 30.6 in Calm     95% 0 in 0 W/m2
01:05 32.5 °F 31.3 °F 30.6 in Calm     95% 0 in 0 W/m2
01:11 32.4 °F 31.1 °F 30.6 in Calm     95% 0 in 0 W/m2
01:16 32.4 °F 30.7 °F 30.6 in Calm     94% 0 in 0 W/m2
01:21 32.2 °F 30.9 °F 30.6 in Calm     95% 0 in 0 W/m2
01:26 32.2 °F 30.9 °F 30.6 in Calm     95% 0 in 0 W/m2
01:31 32 °F 30.7 °F 30.6 in Calm     95% 0 in 0 W/m2
01:36 31.8 °F 30.6 °F 30.6 in Calm     95% 0 in 0 W/m2
01:41 32 °F 30.7 °F 30.6 in Calm     95% 0 in 0 W/m2
01:46 32 °F 30.7 °F 30.6 in Calm     95% 0 in 0 W/m2
01:51 31.8 °F 30.6 °F 30.5 in Calm     95% 0 in 0 W/m2
01:56 31.8 °F 30.6 °F 30.5 in Calm     95% 0 in 0 W/m2
02:01 32 °F 30.7 °F 30.5 in Calm     95% 0 in 0 W/m2
02:06 32 °F 30.7 °F 30.5 in Calm     95% 0 in 0 W/m2
02:11 32 °F 30.7 °F 30.5 in Calm     95% 0 in 0 W/m2
02:16 32 °F 30.7 °F 30.5 in Calm     95% 0 in 0 W/m2
02:21 32 °F 30.7 °F 30.5 in Calm     95% 0 in 0 W/m2
02:26 32 °F 30.7 °F 30.5 in Calm     95% 0 in 0 W/m2
02:31 32.2 °F 30.9 °F 30.5 in Calm     95% 0 in 0 W/m2
02:36 32 °F 30.7 °F 30.5 in Calm     95% 0 in 0 W/m2
02:41 32 °F 30.7 °F 30.5 in Calm     95% 0 in 0 W/m2
02:46 32 °F 30.9 °F 30.5 in Calm     96% 0 in 0 W/m2
02:51 32 °F 30.9 °F 30.5 in Calm     96% 0 in 0 W/m2
02:56 32 °F 30.9 °F 30.5 in Calm     96% 0 in 0 W/m2
03:01 32.2 °F 31.1 °F 30.5 in Calm     96% 0 in 0 W/m2
03:06 32.2 °F 31.1 °F 30.5 in Calm     96% 0 in 0 W/m2
03:11 32.2 °F 31.1 °F 30.5 in Calm     96% 0 in 0 W/m2
03:16 32.2 °F 31.1 °F 30.5 in Calm     96% 0 in 0 W/m2
03:21 32.4 °F 31.3 °F 30.5 in Calm     96% 0 in 0 W/m2
03:26 32.4 °F 31.3 °F 30.5 in Calm     96% 0 in 0 W/m2
03:31 32.4 °F 31.3 °F 30.5 in Calm     96% 0 in 0 W/m2
03:36 32.4 °F 31.3 °F 30.5 in Calm     96% 0 in 0 W/m2
03:41 32.4 °F 31.3 °F 30.5 in Calm     96% 0 in 0 W/m2
03:46 32.4 °F 31.3 °F 30.5 in Calm     96% 0 in 0 W/m2
03:51 32.4 °F 31.3 °F 30.5 in Calm     96% 0 in 0 W/m2
03:56 32.4 °F 31.3 °F 30.5 in Calm     96% 0 in 0 W/m2
04:01 32.4 °F 31.3 °F 30.5 in Calm     96% 0 in 0 W/m2
04:06 32.2 °F 31.1 °F 30.5 in Calm     96% 0 in 0 W/m2
04:11 32.2 °F 31.1 °F 30.5 in Calm     96% 0 in 0 W/m2
04:16 32.4 °F 31.3 °F 30.5 in Calm     96% 0 in 0 W/m2
04:21 32.4 °F 31.3 °F 30.5 in Calm     96% 0 in 0 W/m2
04:26 32.2 °F 31.1 °F 30.5 in Calm     96% 0 in 0 W/m2
04:31 32.2 °F 31.1 °F 30.5 in Calm     96% 0 in 0 W/m2
04:36 32.2 °F 31.1 °F 30.5 in Calm     96% 0 in 0 W/m2
04:41 32.2 °F 31.1 °F 30.5 in Calm     96% 0 in 0 W/m2
04:46 32.2 °F 31.1 °F 30.5 in Calm     96% 0 in 0 W/m2
04:51 32.2 °F 31.1 °F 30.5 in Calm     96% 0 in 0 W/m2
04:56 32.2 °F 31.1 °F 30.5 in Calm     96% 0 in 0 W/m2
05:01 32.2 °F 31.1 °F 30.5 in Calm     96% 0 in 0 W/m2
05:06 32.2 °F 31.1 °F 30.5 in Calm     96% 0 in 0 W/m2
05:11 32.2 °F 31.1 °F 30.5 in Calm     96% 0 in 0 W/m2
05:16 32 °F 30.9 °F 30.5 in Calm     96% 0 in 0 W/m2
05:21 32 °F 30.9 °F 30.5 in Calm     96% 0 in 0 W/m2
05:26 32 °F 30.9 °F 30.5 in Calm     96% 0 in 0 W/m2
05:31 31.8 °F 30.7 °F 30.5 in Calm     96% 0 in 0 W/m2
05:36 31.8 °F 30.7 °F 30.5 in Calm     96% 0 in 0 W/m2
05:41 31.8 °F 30.7 °F 30.5 in Calm     96% 0 in 0 W/m2
05:46 31.8 °F 30.7 °F 30.5 in Calm     96% 0 in 0 W/m2
05:51 31.8 °F 30.7 °F 30.5 in Calm     96% 0 in 0 W/m2
05:56 31.8 °F 30.7 °F 30.5 in Calm     96% 0 in 0 W/m2
06:01 31.6 °F 30.6 °F 30.5 in Calm     96% 0 in 0 W/m2
06:06 31.8 °F 30.7 °F 30.5 in Calm     96% 0 in 0 W/m2
06:11 31.8 °F 30.7 °F 30.5 in Calm     96% 0 in 0 W/m2
06:16 31.8 °F 30.7 °F 30.5 in Calm     96% 0 in 0 W/m2
06:21 31.6 °F 30.6 °F 30.5 in Calm     96% 0 in 0 W/m2
06:26 31.6 °F 30.6 °F 30.5 in Calm     96% 0 in 0 W/m2
06:31 31.6 °F 30.6 °F 30.5 in Calm     96% 0 in 0 W/m2
06:36 31.8 °F 30.7 °F 30.5 in Calm     96% 0 in 0 W/m2
06:41 31.8 °F 30.7 °F 30.5 in Calm     96% 0 in 0 W/m2
06:46 31.8 °F 30.7 °F 30.5 in Calm     96% 0 in 0 W/m2
06:52 31.8 °F 30.7 °F 30.5 in Calm     96% 0 in 0 W/m2
06:57 31.8 °F 30.7 °F 30.5 in Calm     96% 0 in 0 W/m2
07:02 31.8 °F 30.7 °F 30.5 in Calm     96% 0 in 0 W/m2
07:07 31.8 °F 30.7 °F 30.5 in Calm     96% 0 in 0 W/m2
07:12 31.6 °F 30.6 °F 30.5 in Calm     96% 0 in 0 W/m2
07:17 31.6 °F 30.6 °F 30.5 in Calm     96% 0 in 0 W/m2
07:22 31.6 °F 30.6 °F 30.5 in Calm     96% 0 in 0 W/m2
07:27 31.5 °F 30.4 °F 30.5 in Calm     96% 0 in 0 W/m2
07:32 31.5 °F 30.4 °F 30.5 in Calm     96% 0 in 0 W/m2
07:37 31.5 °F 30.4 °F 30.5 in Calm     96% 0 in 0 W/m2
07:42 31.5 °F 30.4 °F 30.5 in Calm     96% 0 in 0 W/m2
07:47 31.5 °F 30.4 °F 30.5 in Calm     96% 0 in 0 W/m2
07:52 31.5 °F 30.4 °F 30.5 in Calm     96% 0 in 0 W/m2
07:57 31.5 °F 30.4 °F 30.5 in Calm     96% 0 in 0 W/m2
08:02 31.3 °F 30.2 °F 30.5 in Calm     96% 0 in 0 W/m2
08:07 31.3 °F 30.2 °F 30.5 in Calm     96% 0 in 5 W/m2
08:12 31.1 °F 30 °F 30.5 in Calm     96% 0 in 9 W/m2
08:17 31.1 °F 30 °F 30.5 in Calm     96% 0 in 12 W/m2
08:22 31.1 °F 30 °F 30.5 in WSW 0.9 mph 1 mph 96% 0 in 18 W/m2
08:27 31.3 °F 30.2 °F 30.5 in Calm   1 mph 96% 0 in 19 W/m2
08:32 31.5 °F 30.7 °F 30.5 in Calm     97% 0 in 21 W/m2
08:37 31.5 °F 30.7 °F 30.5 in Calm     97% 0 in 19 W/m2
08:42 31.5 °F 30.7 °F 30.5 in Calm     97% 0 in 23 W/m2
08:47 31.5 °F 30.4 °F 30.5 in Calm     96% 0 in 26 W/m2
08:52 31.5 °F 30.4 °F 30.5 in Calm     96% 0 in 32 W/m2
08:57 31.5 °F 30.7 °F 30.5 in Calm     97% 0 in 33 W/m2
09:03 31.5 °F 30.7 °F 30.5 in Calm     97% 0 in 35 W/m2
09:08 31.6 °F 30.9 °F 30.5 in Calm     97% 0 in 35 W/m2
09:13 31.6 °F 30.6 °F 30.5 in Calm     96% 0 in 35 W/m2
09:18 31.6 °F 30.9 °F 30.5 in Calm     97% 0 in 35 W/m2
09:23 31.8 °F 31.1 °F 30.5 in Calm     97% 0 in 53 W/m2
09:28 32 °F 31.3 °F 30.5 in Calm     97% 0 in 46 W/m2
09:33 32.2 °F 31.5 °F 30.5 in Calm     97% 0 in 56 W/m2
09:38 32.4 °F 31.6 °F 30.5 in Calm     97% 0 in 51 W/m2
09:43 32.5 °F 31.8 °F 30.5 in Calm     97% 0 in 81 W/m2
09:48 32.5 °F 31.8 °F 30.5 in Calm     97% 0 in 132 W/m2
09:53 32.7 °F 32 °F 30.5 in Calm     97% 0 in 132 W/m2
09:58 33.1 °F 32.4 °F 30.5 in Calm     97% 0 in 100 W/m2
10:03 33.6 °F 32.9 °F 30.5 in East 2.9 mph 3 mph 97% 0 in 132 W/m2
10:08 34.2 °F 33.4 °F 30.5 in Calm     97% 0 in 88 W/m2
10:13 34.3 °F 33.6 °F 30.5 in East 0.9 mph 1 mph 97% 0 in 88 W/m2
10:18 34.5 °F 33.8 °F 30.5 in Calm   1 mph 97% 0 in 51 W/m2
10:23 34.5 °F 33.8 °F 30.5 in ESE 2 mph 3 mph 97% 0 in 53 W/m2
10:28 34.7 °F 34 °F 30.5 in SE 0.9 mph 2 mph 97% 0 in 67 W/m2
10:33 34.9 °F 34.2 °F 30.5 in East 2 mph 3 mph 97% 0 in 102 W/m2
10:38 35.2 °F 34.2 °F 30.5 in NE 0.9 mph 3 mph 96% 0 in 70 W/m2
10:43 35.2 °F 34.2 °F 30.5 in NE 2 mph 2 mph 96% 0 in 49 W/m2
10:48 35.6 °F 34.5 °F 30.5 in Calm   1 mph 96% 0 in 72 W/m2
10:53 35.8 °F 34.7 °F 30.5 in Calm   1 mph 96% 0 in 132 W/m2
10:58 36 °F 34.9 °F 30.5 in Calm     96% 0 in 111 W/m2
11:03 36.1 °F 34.9 °F 30.5 in Calm     95% 0 in 113 W/m2
11:08 36.3 °F 35.1 °F 30.5 in Calm     95% 0 in 70 W/m2
11:13 36.9 °F 35.6 °F 30.5 in Calm     95% 0 in 84 W/m2
11:19 37 °F 35.8 °F 30.5 in NE 2 mph 3 mph 95% 0 in 72 W/m2
11:24 37.6 °F 36 °F 30.5 in East 2.9 mph 4 mph 94% 0 in 62 W/m2
11:29 37.8 °F 36 °F 30.5 in ESE 0.9 mph 2 mph 93% 0 in 65 W/m2
11:34 37.9 °F 36.1 °F 30.5 in East 2.9 mph 3 mph 93% 0 in 67 W/m2
11:39 38.1 °F 36 °F 30.5 in NNE 2 mph 2 mph 92% 0 in 53 W/m2
11:44 38.5 °F 36.1 °F 30.5 in East 0.9 mph 2 mph 91% 0 in 65 W/m2
11:49 38.7 °F 36.3 °F 30.5 in East 0.9 mph 2 mph 91% 0 in 49 W/m2
11:54 38.8 °F 36.1 °F 30.5 in Calm   2 mph 90% 0 in 44 W/m2
11:59 38.8 °F 36.1 °F 30.5 in ENE 0.9 mph 2 mph 90% 0 in 44 W/m2
12:04 39.2 °F 36.3 °F 30.5 in ENE 2 mph 3 mph 89% 0 in 90 W/m2
12:09 39.6 °F 36.5 °F 30.5 in Calm   2 mph 89% 0 in 60 W/m2
12:14 39.7 °F 36.5 °F 30.5 in East 2 mph 6 mph 88% 0 in 121 W/m2
12:19 39.9 °F 36.3 °F 30.5 in NE 2.9 mph 3 mph 87% 0 in 209 W/m2
12:24 40.3 °F 36.5 °F 30.5 in ENE 2.9 mph 4 mph 86% 0 in 186 W/m2
12:29 40.6 °F 36.5 °F 30.5 in East 0.9 mph 3 mph 85% 0 in 144 W/m2
12:34 41 °F 36.5 °F 30.5 in Calm   1 mph 84% 0 in 107 W/m2
12:39 41.4 °F 36.5 °F 30.5 in East 2 mph 3 mph 83% 0 in 65 W/m2
12:44 41.4 °F 36.5 °F 30.5 in Calm   1 mph 83% 0 in 49 W/m2
12:49 41.5 °F 36.7 °F 30.5 in East 2 mph 4 mph 83% 0 in 88 W/m2
12:59 41.5 °F 36.5 °F 30.5 in East 4 mph 4 mph 82% 0 in 63 W/m2
13:04 41.5 °F 35.8 °F 30.5 in Calm   4 mph 80% 0 in 51 W/m2
13:09 41.7 °F 36 °F 30.5 in East 2 mph 6 mph 80% 0 in 53 W/m2
13:14 42.1 °F 36 °F 30.5 in SE 2 mph 2 mph 79% 0 in 95 W/m2
13:19 42.1 °F 36 °F 30.5 in ENE 2.9 mph 7 mph 79% 0 in 118 W/m2
13:24 42.3 °F 36 °F 30.5 in East 2.9 mph 3 mph 78% 0 in 74 W/m2
13:29 42.4 °F 36.1 °F 30.5 in NE 0.9 mph 1 mph 78% 0 in 111 W/m2
13:34 42.6 °F 36 °F 30.5 in East 2 mph 2 mph 77% 0 in 120 W/m2
13:39 43 °F 36 °F 30.5 in ENE 0.9 mph 4 mph 76% 0 in 47 W/m2
13:44 43 °F 34.9 °F 30.5 in Calm   2 mph 73% 0 in 53 W/m2
13:49 43 °F 35.2 °F 30.4 in ENE 2 mph 2 mph 74% 0 in 102 W/m2
13:54 43.2 °F 35.1 °F 30.4 in East 0.9 mph 2 mph 73% 0 in 63 W/m2
13:59 43.3 °F 35.2 °F 30.4 in NNE 3 mph 3 mph 73% 0 in 72 W/m2
14:04 43.3 °F 34.9 °F 30.4 in East 4 mph 6 mph 72% 0 in 58 W/m2
14:09 43.5 °F 34.7 °F 30.4 in SE 0.9 mph 4 mph 71% 0 in 58 W/m2
14:14 43.5 °F 34.3 °F 30.4 in ENE 2 mph 3 mph 70% 0 in 49 W/m2
14:19 43.7 °F 34.5 °F 30.4 in SE 0.9 mph 2 mph 70% 0 in 83 W/m2
14:24 43.7 °F 34.2 °F 30.4 in ENE 0.9 mph 2 mph 69% 0 in 39 W/m2
14:29 43.9 °F 34.7 °F 30.4 in ESE 2.9 mph 3 mph 70% 0 in 47 W/m2
14:34 43.9 °F 34.3 °F 30.4 in Calm   2 mph 69% 0 in 49 W/m2
14:39 43.9 °F 34.3 °F 30.4 in Calm   2 mph 69% 0 in 63 W/m2
14:44 44.1 °F 34.2 °F 30.4 in Calm   3 mph 68% 0 in 33 W/m2
14:49 44.1 °F 34.5 °F 30.4 in Calm     69% 0 in 39 W/m2
14:54 44.1 °F 33.4 °F 30.4 in ENE 0.9 mph 3 mph 66% 0 in 35 W/m2
14:59 44.1 °F 33.1 °F 30.4 in Calm   1 mph 65% 0 in 60 W/m2
15:04 44.1 °F 33.8 °F 30.4 in East 0.9 mph 4 mph 67% 0 in 39 W/m2
15:09 44.1 °F 33.1 °F 30.4 in ENE 0.9 mph 2 mph 65% 0 in 33 W/m2
15:15 44.1 °F 33.4 °F 30.4 in Calm   5 mph 66% 0 in 32 W/m2
15:20 44.2 °F 32.9 °F 30.4 in NNW 0.9 mph 3 mph 64% 0 in 30 W/m2
15:25 44.4 °F 33.4 °F 30.4 in NNE 0.9 mph 6 mph 65% 0 in 30 W/m2
15:30 44.6 °F 33.6 °F 30.4 in East 0.9 mph 3 mph 65% 0 in 40 W/m2
15:35 44.4 °F 33.4 °F 30.4 in ENE 0.9 mph 6 mph 65% 0 in 39 W/m2
15:40 44.2 °F 33.6 °F 30.4 in NE 0.9 mph 2 mph 66% 0 in 30 W/m2
15:45 44.2 °F 33.6 °F 30.4 in Calm   4 mph 66% 0 in 28 W/m2
15:50 44.2 °F 33.3 °F 30.4 in East 0.9 mph 1 mph 65% 0 in 26 W/m2
15:55 44.2 °F 34.7 °F 30.4 in East 2 mph 3 mph 69% 0 in 26 W/m2
16:00 43.5 °F 34.7 °F 30.4 in Calm   1 mph 71% 0 in 25 W/m2
16:05 43.2 °F 33.6 °F 30.4 in East 0.9 mph 2 mph 69% 0 in 23 W/m2
16:10 43.2 °F 34.3 °F 30.4 in SE 0.9 mph 2 mph 71% 0 in 23 W/m2
16:15 43 °F 34.5 °F 30.4 in Calm   1 mph 72% 0 in 21 W/m2
16:20 42.4 °F 34 °F 30.4 in Calm   1 mph 72% 0 in 21 W/m2
16:25 42.3 °F 34.5 °F 30.4 in SE 0.9 mph 2 mph 74% 0 in 21 W/m2
16:30 41.7 °F 34.3 °F 30.4 in Calm   2 mph 75% 0 in 21 W/m2
16:35 41.4 °F 34.3 °F 30.4 in SE 2 mph 2 mph 76% 0 in 19 W/m2
16:40 41.2 °F 34.5 °F 30.4 in SE 0.9 mph 2 mph 77% 0 in 19 W/m2
16:45 40.8 °F 34.2 °F 30.4 in SE 2 mph 2 mph 77% 0 in 18 W/m2
16:50 40.6 °F 34.3 °F 30.4 in Calm   1 mph 78% 0 in 18 W/m2
16:55 40.5 °F 34.5 °F 30.4 in SE 0.9 mph 1 mph 79% 0 in 18 W/m2
17:00 40.3 °F 34.5 °F 30.4 in ESE 2 mph 3 mph 80% 0 in 16 W/m2
17:05 40.5 °F 34.7 °F 30.4 in Calm     80% 0 in 14 W/m2
17:10 40.5 °F 35.1 °F 30.4 in Calm   1 mph 81% 0 in 14 W/m2
17:15 40.3 °F 35.2 °F 30.4 in Calm     82% 0 in 12 W/m2
17:20 40.5 °F 35.4 °F 30.4 in Calm   1 mph 82% 0 in 11 W/m2
17:25 40.5 °F 35.4 °F 30.4 in Calm   1 mph 82% 0 in 9 W/m2
17:30 40.3 °F 35.2 °F 30.4 in Calm   1 mph 82% 0 in 7 W/m2
17:35 40.3 °F 35.2 °F 30.4 in Calm     82% 0 in 5 W/m2
17:40 39.9 °F 35.2 °F 30.4 in Calm   1 mph 83% 0 in 0 W/m2
17:45 39.9 °F 35.2 °F 30.4 in Calm   1 mph 83% 0 in 0 W/m2
17:50 39.9 °F 34.9 °F 30.4 in Calm   1 mph 82% 0 in 0 W/m2
17:55 39.9 °F 34.9 °F 30.4 in SE 0.9 mph 2 mph 82% 0 in 0 W/m2
18:00 39.7 °F 34.7 °F 30.4 in Calm   2 mph 82% 0 in 0 W/m2
18:05 39.6 °F 34.5 °F 30.4 in SE 0.9 mph 1 mph 82% 0 in 0 W/m2
18:10 39 °F 34.3 °F 30.4 in Calm   2 mph 83% 0 in 0 W/m2
18:16 38.8 °F 34.2 °F 30.4 in Calm   1 mph 83% 0 in 0 W/m2
18:21 38.7 °F 34.2 °F 30.4 in SE 2 mph 2 mph 84% 0 in 0 W/m2
18:26 38.5 °F 34.2 °F 30.4 in Calm     84% 0 in 0 W/m2
18:31 38.1 °F 33.8 °F 30.4 in SE 0.9 mph 2 mph 84% 0 in 0 W/m2
18:36 37.9 °F 33.6 °F 30.4 in Calm     84% 0 in 0 W/m2
18:41 37.9 °F 33.8 °F 30.4 in Calm   1 mph 85% 0 in 0 W/m2
18:46 37.8 °F 33.6 °F 30.4 in SE 0.9 mph 1 mph 85% 0 in 0 W/m2
18:51 37.6 °F 33.4 °F 30.4 in Calm     85% 0 in 0 W/m2
18:56 37.6 °F 33.8 °F 30.4 in Calm   2 mph 86% 0 in 0 W/m2
19:01 37.6 °F 33.8 °F 30.4 in SE 0.9 mph 2 mph 86% 0 in 0 W/m2
19:06 37.6 °F 33.4 °F 30.4 in SE 0.9 mph 1 mph 85% 0 in 0 W/m2
19:11 37.4 °F 33.6 °F 30.4 in Calm   1 mph 86% 0 in 0 W/m2
19:16 37.2 °F 33.4 °F 30.4 in Calm     86% 0 in 0 W/m2
19:21 37.2 °F 33.4 °F 30.4 in Calm     86% 0 in 0 W/m2
19:26 37 °F 33.3 °F 30.4 in Calm   1 mph 86% 0 in 0 W/m2
19:31 37 °F 33.3 °F 30.4 in Calm     86% 0 in 0 W/m2
19:36 36.9 °F 33.1 °F 30.4 in Calm   2 mph 86% 0 in 0 W/m2
19:41 36.9 °F 33.4 °F 30.4 in Calm     87% 0 in 0 W/m2
19:46 36.7 °F 33.3 °F 30.4 in Calm   2 mph 87% 0 in 0 W/m2
19:51 36.7 °F 33.3 °F 30.4 in SE 0.9 mph 1 mph 87% 0 in 0 W/m2
19:56 36.5 °F 33.1 °F 30.4 in Calm   1 mph 87% 0 in 0 W/m2
20:01 36.5 °F 33.3 °F 30.4 in Calm     88% 0 in 0 W/m2
20:06 36.3 °F 32.9 °F 30.4 in Calm     87% 0 in 0 W/m2
20:11 36.1 °F 32.7 °F 30.4 in Calm     87% 0 in 0 W/m2
20:16 36.1 °F 32.9 °F 30.4 in Calm   2 mph 88% 0 in 0 W/m2
20:21 36 °F 32.7 °F 30.4 in Calm   1 mph 88% 0 in 0 W/m2
20:26 36 °F 32.7 °F 30.4 in Calm   2 mph 88% 0 in 0 W/m2
20:31 35.8 °F 32.5 °F 30.4 in Calm   1 mph 88% 0 in 0 W/m2
20:36 35.8 °F 32.9 °F 30.4 in Calm     89% 0 in 0 W/m2
20:41 35.8 °F 32.9 °F 30.4 in Calm   1 mph 89% 0 in 0 W/m2
20:47 35.6 °F 32.7 °F 30.4 in Calm   2 mph 89% 0 in 0 W/m2
20:52 35.4 °F 32.5 °F 30.4 in Calm     89% 0 in 0 W/m2
20:57 35.4 °F 32.5 °F 30.4 in Calm   1 mph 89% 0 in 0 W/m2
21:02 35.2 °F 32.4 °F 30.4 in Calm     89% 0 in 0 W/m2
21:07 35.2 °F 32.5 °F 30.4 in Calm     90% 0 in 0 W/m2
21:12 35.1 °F 32.4 °F 30.4 in Calm     90% 0 in 0 W/m2
21:17 34.9 °F 32.2 °F 30.4 in SE 0.9 mph 1 mph 90% 0 in 0 W/m2
21:22 34.7 °F 32 °F 30.4 in Calm     90% 0 in 0 W/m2
21:27 34.5 °F 31.8 °F 30.4 in Calm     90% 0 in 0 W/m2
21:32 34.3 °F 31.6 °F 30.4 in Calm     90% 0 in 0 W/m2
21:37 34.3 °F 31.6 °F 30.4 in Calm     90% 0 in 0 W/m2
21:42 34 °F 31.3 °F 30.4 in Calm     90% 0 in 0 W/m2
21:47 34 °F 31.6 °F 30.4 in Calm     91% 0 in 0 W/m2
21:52 33.8 °F 31.5 °F 30.4 in Calm   1 mph 91% 0 in 0 W/m2
21:57 33.6 °F 31.3 °F 30.4 in Calm     91% 0 in 0 W/m2
22:02 33.4 °F 31.1 °F 30.4 in Calm     91% 0 in 0 W/m2
22:07 33.3 °F 30.9 °F 30.4 in Calm     91% 0 in 0 W/m2
22:13 33.3 °F 31.1 °F 30.4 in Calm     92% 0 in 0 W/m2
22:18 33.3 °F 31.1 °F 30.4 in Calm     92% 0 in 0 W/m2
22:23 33.3 °F 31.1 °F 30.4 in Calm     92% 0 in 0 W/m2
22:28 33.1 °F 31.1 °F 30.4 in Calm     92% 0 in 0 W/m2
22:33 32.9 °F 30.9 °F 30.4 in Calm     92% 0 in 0 W/m2
22:38 32.7 °F 30.9 °F 30.4 in Calm     93% 0 in 0 W/m2
22:43 32.7 °F 30.9 °F 30.4 in Calm   1 mph 93% 0 in 0 W/m2
22:48 32.5 °F 30.7 °F 30.4 in SE 0.9 mph 1 mph 93% 0 in 0 W/m2
22:53 32.5 °F 30.7 °F 30.4 in SE 0.9 mph 1 mph 93% 0 in 0 W/m2
22:58 32.5 °F 30.7 °F 30.4 in SE 0.9 mph 1 mph 93% 0 in 0 W/m2
23:03 32.7 °F 31.1 °F 30.4 in SE 0.9 mph 1 mph 94% 0 in 0 W/m2
23:08 32.7 °F 31.1 °F 30.4 in Calm   1 mph 94% 0 in 0 W/m2
23:13 32.7 °F 31.1 °F 30.4 in Calm   2 mph 94% 0 in 0 W/m2
23:18 32.7 °F 30.9 °F 30.4 in Calm     93% 0 in 0 W/m2
23:23 32.5 °F 30.7 °F 30.4 in Calm   2 mph 93% 0 in 0 W/m2
23:28 32.4 °F 30.7 °F 30.4 in Calm   1 mph 94% 0 in 0 W/m2
23:33 32.4 °F 30.7 °F 30.4 in Calm     94% 0 in 0 W/m2
23:38 32.4 °F 30.7 °F 30.4 in Calm   1 mph 94% 0 in 0 W/m2
23:43 32.2 °F 30.6 °F 30.4 in Calm     94% 0 in 0 W/m2
23:48 32.2 °F 30.6 °F 30.4 in Calm     94% 0 in 0 W/m2
23:53 32 °F 30.6 °F 30.4 in Calm     94% 0 in 0 W/m2
23:58 31.8 °F 30.4 °F 30.4 in Calm     94% 0 in 0 W/m2
Juneau County Weather
Compliments of Weather Underground - 4 mb